Time;durP1;ratioP1;P1;durP2;ratioP2;P2;SDS_P1;SDS_P2;PMS_P1;PMS_P2;Temp;Humidity;BMP_temperature;BMP_pressure;BME280_temperature;BME280_humidity;BME280_pressure;Samples;Min_cycle;Max_cycle;Signal;HPM_P1;HPM_P2
2022/01/18 00:00:09;;;;;;;29.02;13.32;;;;;;;4.13;75.49;101471.34;4962655;28;20815;-81
2022/01/18 00:02:37;;;;;;;22.08;12.10;;;;;;;3.99;76.24;101466.13;4962702;28;20129;-83
2022/01/18 00:05:03;;;;;;;23.83;12.35;;;;;;;4.32;75.83;101463.97;4956139;28;20121;-83
2022/01/18 00:07:29;;;;;;;23.38;11.90;;;;;;;4.58;74.36;101473.63;4960139;28;20117;-83
2022/01/18 00:09:54;;;;;;;22.63;11.05;;;;;;;4.50;73.84;101480.31;4967101;28;20155;-82
2022/01/18 00:15:29;;;;;;;22.02;10.80;;;;;;;4.74;73.19;101488.38;4970916;28;20051;-82
2022/01/18 00:18:07;;;;;;;18.55;10.52;;;;;;;4.68;72.79;101490.47;4961475;28;20066;-82
2022/01/18 00:20:49;;;;;;;22.38;11.13;;;;;;;4.73;72.68;101494.56;4945741;29;20090;-82
2022/01/18 00:23:15;;;;;;;21.10;10.85;;;;;;;4.90;72.95;101494.31;4970755;28;20045;-85
2022/01/18 00:25:48;;;;;;;22.52;11.70;;;;;;;4.98;72.82;101502.50;4943327;28;20510;-86
2022/01/18 00:28:15;;;;;;;19.42;10.60;;;;;;;5.00;72.46;101495.38;4949789;28;20039;-86
2022/01/18 00:33:21;;;;;;;19.70;10.80;;;;;;;4.73;73.63;101507.69;4972400;28;20038;-88
2022/01/18 00:35:56;;;;;;;25.75;12.95;;;;;;;4.57;73.82;101519.19;4961111;28;20062;-87
2022/01/18 00:41:19;;;;;;;30.65;14.13;;;;;;;4.64;74.02;101551.97;4915012;29;20565;-82
2022/01/18 00:43:45;;;;;;;22.83;12.52;;;;;;;4.31;74.63;101548.06;4914659;29;20083;-80
2022/01/18 00:46:12;;;;;;;19.90;11.13;;;;;;;4.49;73.77;101546.88;4914716;29;20143;-78
2022/01/18 00:48:39;;;;;;;16.13;9.18;;;;;;;4.55;71.97;101549.09;4914832;29;20043;-81
2022/01/18 00:51:09;;;;;;;20.67;8.57;;;;;;;4.49;71.23;101563.47;4921429;29;20062;-81
2022/01/18 00:53:37;;;;;;;15.25;8.70;;;;;;;4.47;71.57;101575.88;4955094;29;20429;-81
2022/01/18 00:58:31;;;;;;;15.88;7.38;;;;;;;4.39;70.94;101580.75;4955289;29;20089;-82
2022/01/18 01:00:57;;;;;;;18.42;7.88;;;;;;;4.34;71.88;101585.41;4969246;28;20118;-80
2022/01/18 01:03:22;;;;;;;18.23;7.47;;;;;;;4.35;71.55;101602.88;4973951;28;20539;-82
2022/01/18 01:05:48;;;;;;;13.90;7.13;;;;;;;4.23;71.63;101611.50;4974232;28;20041;-80
2022/01/18 01:08:14;;;;;;;13.93;7.10;;;;;;;4.04;71.74;101610.97;4973913;28;20035;-81
2022/01/18 01:10:41;;;;;;;12.82;6.35;;;;;;;3.51;72.74;101609.75;4973901;28;20113;-80
2022/01/18 01:13:07;;;;;;;11.10;5.75;;;;;;;3.48;73.87;101609.94;4973682;28;20458;-81
2022/01/18 01:15:39;;;;;;;13.10;5.72;;;;;;;3.16;75.56;101613.59;4973920;28;20043;-80
2022/01/18 01:42:28;;;;;;;7.07;4.25;;;;;;;2.67;78.24;101667.00;4980585;28;20089;-81
2022/01/18 01:44:55;;;;;;;12.48;5.07;;;;;;;2.56;78.42;101671.06;4975030;28;20043;-81
2022/01/18 01:47:23;;;;;;;9.82;4.93;;;;;;;2.42;79.72;101670.94;4974179;28;20018;-79
2022/01/18 01:49:50;;;;;;;12.73;5.30;;;;;;;2.42;79.05;101681.41;4973797;28;20106;-81
2022/01/18 01:52:19;;;;;;;12.32;4.55;;;;;;;2.55;79.64;101674.59;4973577;28;20489;-86
2022/01/18 01:54:44;;;;;;;9.32;5.30;;;;;;;2.45;79.42;101668.16;4973494;28;20039;-80
2022/01/18 01:57:10;;;;;;;12.52;4.93;;;;;;;2.39;80.15;101657.19;4973537;28;20034;-82
2022/01/18 01:59:36;;;;;;;14.57;5.47;;;;;;;2.36;81.03;101662.59;4974372;28;20527;-81
2022/01/18 02:02:03;;;;;;;13.02;5.93;;;;;;;2.38;81.39;101656.38;4973593;28;20163;-82
2022/01/18 02:04:29;;;;;;;9.32;5.18;;;;;;;2.45;81.07;101655.09;4976601;28;20539;-82
2022/01/18 02:06:55;;;;;;;10.10;5.20;;;;;;;2.51;81.37;101661.78;4976974;28;20043;-79
2022/01/18 02:09:23;;;;;;;15.25;6.07;;;;;;;2.60;81.12;101659.50;4977384;28;20114;-82
2022/01/18 02:11:50;;;;;;;13.40;6.82;;;;;;;2.74;80.78;101653.53;4977057;28;20039;-81
2022/01/18 02:14:20;;;;;;;11.07;6.30;;;;;;;2.83;80.29;101646.91;4976631;28;20392;-80
2022/01/18 02:22:15;;;;;;;14.13;7.15;;;;;;;2.83;81.01;101641.69;4976557;28;20085;-79
2022/01/18 02:24:41;;;;;;;14.95;7.20;;;;;;;2.88;80.29;101634.44;4976735;28;20043;-80
2022/01/18 02:27:06;;;;;;;18.02;7.40;;;;;;;3.02;80.12;101639.72;4976536;28;20067;-80
2022/01/18 02:29:32;;;;;;;15.40;7.93;;;;;;;3.11;79.56;101647.91;4977071;28;20393;-80
2022/01/18 02:31:58;;;;;;;12.43;6.65;;;;;;;3.20;79.43;101646.53;4976608;28;20504;-82
2022/01/18 02:34:24;;;;;;;14.32;7.35;;;;;;;3.23;78.89;101650.75;4976710;28;20050;-81
2022/01/18 02:36:54;;;;;;;15.45;6.68;;;;;;;3.30;78.32;101647.69;4976854;28;20065;-81
2022/01/18 02:39:27;;;;;;;12.98;7.00;;;;;;;3.26;79.36;101643.56;4976515;28;20039;-82
2022/01/18 02:41:58;;;;;;;13.52;7.60;;;;;;;3.30;79.23;101646.84;4959198;28;20035;-81
2022/01/18 02:44:25;;;;;;;13.38;7.57;;;;;;;3.48;78.26;101651.06;4976288;28;20145;-81
2022/01/18 02:46:51;;;;;;;14.27;7.50;;;;;;;3.55;77.71;101652.34;4976645;28;20109;-81
2022/01/18 02:49:17;;;;;;;16.23;7.50;;;;;;;3.53;77.52;101649.84;4976329;28;20435;-80
2022/01/18 02:51:43;;;;;;;14.88;7.53;;;;;;;3.61;77.59;101652.84;4977230;28;20042;-81
2022/01/18 02:54:11;;;;;;;14.90;7.60;;;;;;;3.52;80.45;101652.53;4976343;28;20181;-80
2022/01/18 02:56:41;;;;;;;22.55;8.00;;;;;;;3.61;77.94;101663.31;4976493;28;20038;-80
2022/01/18 03:04:19;;;;;;;13.95;7.80;;;;;;;3.60;78.02;101664.28;4976431;28;20039;-81
2022/01/18 03:06:45;;;;;;;16.17;7.75;;;;;;;3.50;78.37;101660.50;4976238;28;20061;-80
2022/01/18 03:09:11;;;;;;;17.70;8.35;;;;;;;3.57;78.13;101659.22;4958858;28;20101;-82
2022/01/18 03:11:40;;;;;;;17.98;8.45;;;;;;;3.53;78.28;101670.81;4976167;28;20081;-80
2022/01/18 03:14:05;;;;;;;18.05;9.50;;;;;;;3.66;78.01;101670.94;4958732;28;20125;-79
2022/01/18 03:16:32;;;;;;;15.77;8.20;;;;;;;3.78;77.08;101674.63;4975945;28;20524;-79
2022/01/18 03:18:57;;;;;;;13.80;7.50;;;;;;;3.73;77.10;101671.41;4975906;28;20078;-81
2022/01/18 03:21:23;;;;;;;16.55;7.32;;;;;;;3.80;76.48;101668.34;4976202;28;20477;-79
2022/01/18 03:23:53;;;;;;;16.33;8.32;;;;;;;3.88;76.75;101670.53;4976070;28;20613;-79
2022/01/18 03:26:30;;;;;;;20.45;8.05;;;;;;;4.10;76.32;101678.78;4976515;28;20058;-81
2022/01/18 03:28:55;;;;;;;14.38;8.10;;;;;;;4.16;75.88;101684.50;4975717;28;20050;-80
2022/01/18 03:31:21;;;;;;;15.02;8.05;;;;;;;4.34;74.76;101689.56;4958798;28;20499;-80
2022/01/18 03:33:46;;;;;;;20.92;8.25;;;;;;;4.49;74.71;101683.38;4975754;28;20109;-80
2022/01/18 03:36:12;;;;;;;17.90;9.10;;;;;;;4.53;73.87;101684.88;4975482;28;20031;-81
2022/01/18 03:38:37;;;;;;;14.80;7.85;;;;;;;4.56;73.64;101684.69;4975612;28;20031;-81
2022/01/18 03:41:04;;;;;;;13.93;8.15;;;;;;;4.69;73.85;101690.84;4975643;28;20037;-81
2022/01/18 03:43:35;;;;;;;14.38;8.57;;;;;;;4.49;73.58;101694.72;4958438;28;20026;-81
2022/01/18 03:46:02;;;;;;;15.48;7.70;;;;;;;4.63;73.83;101696.50;4975447;28;20097;-82
2022/01/18 03:48:35;;;;;;;14.15;7.80;;;;;;;4.71;73.62;101702.09;4975476;28;20047;-81
2022/01/18 03:51:03;;;;;;;19.83;7.88;;;;;;;4.80;73.14;101703.31;4957941;28;20070;-80
2022/01/18 03:53:29;;;;;;;15.20;8.57;;;;;;;4.89;73.09;101708.84;4975150;28;20054;-81
2022/01/18 03:55:55;;;;;;;20.88;10.25;;;;;;;4.73;71.85;101712.50;4957870;28;20038;-80
2022/01/18 03:58:21;;;;;;;16.10;8.63;;;;;;;4.36;73.49;101719.19;4977604;28;20026;-80
2022/01/18 04:00:47;;;;;;;20.88;8.63;;;;;;;4.41;75.04;101717.13;4975284;28;20086;-80
2022/01/18 04:03:13;;;;;;;16.88;8.70;;;;;;;4.20;75.65;101713.19;4975230;28;20062;-81
2022/01/18 04:05:38;;;;;;;18.15;8.45;;;;;;;4.21;75.89;101707.00;4975389;28;20035;-81
2022/01/18 04:08:05;;;;;;;16.75;8.18;;;;;;;4.16;76.20;101704.63;4975028;28;20069;-80
2022/01/18 04:10:36;;;;;;;14.10;8.07;;;;;;;4.01;77.03;101702.94;4975024;28;20426;-81
2022/01/18 04:13:02;;;;;;;14.77;8.18;;;;;;;3.98;77.18;101708.34;4974893;28;20042;-79
2022/01/18 04:15:29;;;;;;;17.25;8.95;;;;;;;3.91;77.84;101712.28;4957772;28;20511;-79
2022/01/18 04:26:52;;;;;;;20.85;9.02;;;;;;;3.35;78.44;101713.78;4974368;28;20129;-80
2022/01/18 04:28:54;;;;;;;19.58;8.65;;;;;;;2.96;80.17;101731.72;4974488;28;20445;-81
2022/01/18 04:31:21;;;;;;;23.40;9.30;;;;;;;2.79;80.37;101747.47;4974751;28;20039;-79
2022/01/18 04:33:47;;;;;;;26.92;14.30;;;;;;;2.44;85.62;101739.75;4963907;28;20424;-81
2022/01/18 04:36:13;;;;;;;36.22;19.33;;;;;;;2.01;91.89;101740.28;4988225;28;20030;-80
2022/01/18 04:38:39;;;;;;;40.17;20.02;;;;;;;1.97;94.34;101734.34;4979576;28;20038;-81
2022/01/18 04:41:09;;;;;;;43.38;19.05;;;;;;;1.78;96.36;101743.19;4974556;28;20035;-81
2022/01/18 04:49:06;;;;;;;35.70;17.35;;;;;;;2.34;93.52;101767.31;4958108;28;20042;-79
2022/01/18 04:51:32;;;;;;;36.25;18.65;;;;;;;2.44;92.42;101775.53;4974477;28;20137;-80
2022/01/18 04:54:00;;;;;;;36.50;17.20;;;;;;;2.60;90.54;101779.03;4974675;28;20053;-81
2022/01/18 04:57:51;;;;;;;39.40;18.63;;;;;;;2.80;90.21;101791.06;4975545;28;20250;-81
2022/01/18 04:59:16;;;;;;;33.72;17.42;;;;;;;2.62;89.75;101790.25;4960814;28;20050;-79
2022/01/18 05:01:44;;;;;;;33.58;17.38;;;;;;;2.73;89.08;101776.59;4983648;28;20042;-80
2022/01/18 05:04:11;;;;;;;34.67;16.55;;;;;;;2.51;89.41;101777.75;4976587;28;20364;-78
2022/01/18 05:06:36;;;;;;;39.78;18.25;;;;;;;2.32;90.52;101777.00;4957588;28;20085;-81
2022/01/18 05:09:08;;;;;;;36.72;18.33;;;;;;;1.94;92.50;101785.94;4974481;28;20031;-80
2022/01/18 05:11:39;;;;;;;34.35;16.23;;;;;;;1.74;94.45;101780.84;4974204;28;20038;-80
2022/01/18 05:14:27;;;;;;;33.15;13.13;;;;;;;1.50;95.46;101791.56;4974175;28;20416;-81
2022/01/18 05:17:00;;;;;;;32.47;16.75;;;;;;;1.40;96.29;101792.91;4957481;28;20050;-81
2022/01/18 05:24:32;;;;;;;25.30;11.48;;;;;;;1.41;94.35;101806.81;4973972;28;20667;-82
2022/01/18 05:27:00;;;;;;;19.88;11.35;;;;;;;1.40;94.23;101810.34;4974163;28;20528;-80
2022/01/18 05:29:27;;;;;;;18.65;10.43;;;;;;;1.40;94.07;101807.75;4974303;28;20034;-81
2022/01/18 05:31:52;;;;;;;20.90;10.45;;;;;;;1.51;92.47;101815.94;4974001;28;20439;-79
2022/01/18 05:34:18;;;;;;;20.73;9.98;;;;;;;1.44;92.87;101820.59;4974124;28;20047;-81
2022/01/18 05:36:44;;;;;;;17.83;9.45;;;;;;;1.48;92.76;101837.81;4974650;28;20054;-81
2022/01/18 05:39:10;;;;;;;17.50;8.35;;;;;;;1.47;91.57;101833.50;4978384;28;20039;-79
2022/01/18 05:41:38;;;;;;;17.02;8.15;;;;;;;1.51;91.75;101837.69;4977910;28;20442;-80
2022/01/18 05:44:04;;;;;;;16.00;8.38;;;;;;;1.45;91.51;101845.81;4977253;28;20862;-80
2022/01/18 05:46:30;;;;;;;14.32;7.95;;;;;;;1.33;92.52;101851.56;4977606;28;20042;-79
2022/01/18 05:48:56;;;;;;;18.73;7.45;;;;;;;1.34;91.84;101850.66;4960164;28;20047;-83
2022/01/18 05:51:21;;;;;;;11.77;6.00;;;;;;;1.28;90.77;101856.19;4977554;28;20038;-81
2022/01/18 05:53:47;;;;;;;10.52;5.35;;;;;;;1.22;91.10;101853.84;4982151;28;20074;-86
2022/01/18 05:56:13;;;;;;;13.20;6.00;;;;;;;1.28;90.71;101858.78;4988428;28;20039;-91
2022/01/18 05:58:44;;;;;;;12.40;5.68;;;;;;;1.24;90.47;101856.38;4961868;28;20038;-90
2022/01/18 06:01:32;;;;;;;14.10;6.85;;;;;;;1.18;90.81;101852.28;4958692;28;20038;-87
2022/01/18 06:09:06;;;;;;;20.58;9.18;;;;;;;1.33;91.35;101867.25;4982880;28;20031;-84
2022/01/18 06:11:32;;;;;;;91.53;36.58;;;;;;;1.37;91.60;101874.03;4976788;28;20050;-85
2022/01/18 06:13:59;;;;;;;64.43;26.98;;;;;;;1.58;90.74;101881.78;4958426;28;20039;-85
2022/01/18 06:16:25;;;;;;;47.42;20.13;;;;;;;1.75;89.75;101879.25;4943353;29;20054;-85
2022/01/18 06:18:51;;;;;;;26.55;12.73;;;;;;;1.91;88.63;101869.75;4943376;29;20501;-83
2022/01/18 06:21:16;;;;;;;22.80;11.70;;;;;;;1.90;89.31;101876.72;4961251;29;20047;-84
2022/01/18 06:23:42;;;;;;;24.42;11.40;;;;;;;2.01;89.40;101881.44;4960062;29;20366;-88
2022/01/18 06:26:07;;;;;;;28.65;16.70;;;;;;;2.10;88.78;101886.22;4941823;28;20154;-84
2022/01/18 06:28:34;;;;;;;24.05;12.07;;;;;;;2.09;89.38;101901.06;4947093;29;20037;-87
2022/01/18 06:31:00;;;;;;;21.17;10.23;;;;;;;2.31;86.90;101905.25;4965731;29;20035;-83
2022/01/18 06:33:28;;;;;;;20.95;10.00;;;;;;;2.09;87.82;101905.44;4970272;29;20074;-83
2022/01/18 06:35:54;;;;;;;20.77;9.43;;;;;;;2.01;89.51;101907.59;4965287;29;20477;-86
2022/01/18 06:38:19;;;;;;;24.17;9.48;;;;;;;2.00;90.87;101905.91;4944391;29;20031;-86
2022/01/18 06:40:46;;;;;;;18.48;8.63;;;;;;;2.00;90.78;101901.50;4944354;29;20031;-85
2022/01/18 06:43:11;;;;;;;14.90;8.45;;;;;;;2.12;90.00;101909.69;4944615;29;20063;-84
2022/01/18 06:45:37;;;;;;;27.20;10.82;;;;;;;2.15;89.87;101905.16;4960254;29;20039;-84
2022/01/18 06:48:03;;;;;;;23.63;10.98;;;;;;;2.04;90.08;101905.69;4961292;28;20066;-86
2022/01/18 06:50:29;;;;;;;24.42;10.20;;;;;;;1.90;91.26;101902.88;4961777;29;20086;-83
2022/01/18 06:52:54;;;;;;;22.73;11.38;;;;;;;2.01;91.03;101902.38;4963007;28;20031;-82
2022/01/18 06:55:20;;;;;;;28.38;11.50;;;;;;;2.09;91.37;101908.06;4963605;28;20035;-83
2022/01/18 06:57:45;;;;;;;22.27;10.93;;;;;;;2.35;90.17;101909.44;4966433;28;20469;-84
2022/01/18 07:00:11;;;;;;;27.40;12.45;;;;;;;2.34;90.43;101908.56;4957369;28;20365;-85
2022/01/18 07:02:37;;;;;;;22.60;12.50;;;;;;;2.37;90.45;101921.50;4971425;28;20046;-81
2022/01/18 07:05:03;;;;;;;26.60;13.60;;;;;;;2.45;90.65;101910.66;4976717;28;20034;-83
2022/01/18 07:07:29;;;;;;;28.15;13.55;;;;;;;2.54;90.09;101921.50;4966881;28;20122;-82
2022/01/18 07:09:54;;;;;;;32.15;14.63;;;;;;;2.30;90.99;101920.09;4968405;28;20528;-83
2022/01/18 07:12:20;;;;;;;29.13;14.52;;;;;;;2.21;92.11;101920.56;4961846;28;20090;-83
2022/01/18 07:14:57;;;;;;;40.65;16.80;;;;;;;2.28;92.55;101937.66;4963223;28;20854;-86
2022/01/18 07:17:23;;;;;;;32.70;17.77;;;;;;;2.52;92.92;101948.66;4954082;28;20039;-85
2022/01/18 07:19:49;;;;;;;41.75;19.17;;;;;;;2.89;93.43;101960.75;4962710;28;20478;-82
2022/01/18 07:22:23;;;;;;;38.65;20.45;;;;;;;3.52;91.29;101974.91;4963480;28;20035;-82
2022/01/18 07:24:51;;;;;;;39.47;16.80;;;;;;;3.61;88.37;101964.75;4949140;28;20030;-83
2022/01/18 07:27:17;;;;;;;42.55;20.67;;;;;;;4.07;87.09;101975.41;4961747;28;20051;-83
2022/01/18 07:29:43;;;;;;;42.35;20.67;;;;;;;4.35;86.53;101969.44;4975975;28;20027;-83
2022/01/18 07:32:11;;;;;;;51.17;23.80;;;;;;;4.78;85.22;101973.06;4979367;28;20477;-85
2022/01/18 07:34:41;;;;;;;43.05;22.63;;;;;;;4.97;84.95;101971.88;4979854;23;20052;-80
2022/01/18 07:37:09;;;;;;;49.80;23.80;;;;;;;5.26;83.43;101978.03;4919689;29;20043;-82
2022/01/18 07:39:34;;;;;;;41.10;20.90;;;;;;;5.39;81.45;101986.03;4945021;29;20179;-84
2022/01/18 07:42:09;;;;;;;58.65;28.90;;;;;;;5.33;80.62;101992.50;4948896;29;20114;-86
2022/01/18 07:44:35;;;;;;;52.95;28.85;;;;;;;5.01;82.46;101996.19;4943071;29;20098;-84
2022/01/18 07:47:01;;;;;;;61.88;31.75;;;;;;;4.59;83.73;102000.38;4958672;29;20059;-84
2022/01/18 07:49:26;;;;;;;51.85;26.30;;;;;;;4.73;83.30;102017.13;4946576;29;20042;-83
2022/01/18 07:51:58;;;;;;;59.33;31.95;;;;;;;5.00;83.84;102013.75;4958322;29;20039;-86
2022/01/18 07:54:26;;;;;;;58.25;31.80;;;;;;;5.20;81.90;102009.97;4953073;29;20094;-82
2022/01/18 07:56:52;;;;;;;54.72;28.55;;;;;;;5.23;82.89;102022.91;4941116;29;20039;-83
2022/01/18 07:59:20;;;;;;;62.60;27.10;;;;;;;4.67;86.46;102024.41;4950738;29;20167;-85
2022/01/18 08:01:47;;;;;;;58.53;25.92;;;;;;;4.51;86.06;102028.00;4949853;28;20106;-86
2022/01/18 08:04:19;;;;;;;56.97;26.95;;;;;;;4.43;88.97;102025.81;4948324;29;20054;-86
2022/01/18 08:06:45;;;;;;;67.18;27.90;;;;;;;4.51;88.39;102026.22;4932418;29;20063;-86
2022/01/18 08:09:10;;;;;;;65.75;29.73;;;;;;;4.38;89.97;102032.25;4970023;29;20014;-86
2022/01/18 08:11:56;;;;;;;62.55;31.02;;;;;;;4.36;91.55;102029.72;4969851;29;20503;-85
2022/01/18 08:14:24;;;;;;;69.38;35.00;;;;;;;4.09;94.03;102036.47;4885072;29;20093;-85
2022/01/18 08:17:00;;;;;;;75.03;34.25;;;;;;;4.03;95.38;102040.28;4888510;29;20077;-83
2022/01/18 08:19:46;;;;;;;75.05;34.15;;;;;;;3.91;96.55;102042.75;4857061;29;20050;-86
2022/01/18 08:22:13;;;;;;;69.47;35.00;;;;;;;3.79;96.23;102041.59;4877849;29;20051;-83
2022/01/18 08:24:39;;;;;;;68.25;34.58;;;;;;;3.77;97.24;102046.09;4871295;29;20056;-81
2022/01/18 08:27:05;;;;;;;78.40;33.17;;;;;;;3.80;96.80;102045.94;4871261;29;20053;-84
2022/01/18 08:29:30;;;;;;;85.65;40.55;;;;;;;3.85;97.64;102053.53;4858932;29;20042;-85
2022/01/18 08:31:56;;;;;;;105.00;47.40;;;;;;;4.00;100.00;102050.09;4887284;29;20052;-86
2022/01/18 08:34:22;;;;;;;98.47;47.85;;;;;;;4.13;100.00;102048.50;4865756;29;20048;-87
2022/01/18 08:37:07;;;;;;;117.85;52.45;;;;;;;4.29;100.00;102056.38;4883503;29;20121;-84
2022/01/18 08:39:35;;;;;;;113.57;55.80;;;;;;;4.46;100.00;102062.41;4870578;29;20598;-83
2022/01/18 08:42:01;;;;;;;132.10;57.92;;;;;;;4.62;100.00;102065.84;4875270;29;20075;-81
2022/01/18 08:44:27;;;;;;;135.05;60.15;;;;;;;4.74;100.00;102060.84;4883796;29;20031;-86
2022/01/18 08:46:53;;;;;;;127.60;62.88;;;;;;;4.88;100.00;102060.88;4881101;29;20076;-85
2022/01/18 08:49:19;;;;;;;139.30;64.90;;;;;;;4.96;100.00;102063.94;4884254;29;20033;-85
2022/01/18 08:51:45;;;;;;;140.38;65.22;;;;;;;5.08;100.00;102071.09;4936933;29;20520;-84
2022/01/18 08:54:10;;;;;;;137.70;64.60;;;;;;;5.14;100.00;102071.59;4947662;29;20019;-85
2022/01/18 08:56:38;;;;;;;138.55;65.90;;;;;;;5.21;100.00;102069.44;4942285;29;20042;-85
2022/01/18 08:59:04;;;;;;;146.15;65.18;;;;;;;5.33;100.00;102074.00;4960903;29;20067;-85
2022/01/18 09:01:29;;;;;;;130.45;61.10;;;;;;;5.42;100.00;102069.97;4932856;29;20143;-85
2022/01/18 09:03:55;;;;;;;120.03;60.20;;;;;;;5.53;100.00;102075.44;4959799;29;20039;-85
2022/01/18 09:06:23;;;;;;;130.52;60.55;;;;;;;5.67;100.00;102081.56;4953184;29;20090;-84
2022/01/18 09:08:55;;;;;;;133.05;60.15;;;;;;;5.77;100.00;102088.91;4960505;29;20077;-82
2022/01/18 09:11:29;;;;;;;132.88;59.67;;;;;;;5.88;100.00;102089.13;4961108;28;20037;-82
2022/01/18 09:13:55;;;;;;;121.07;57.72;;;;;;;6.01;100.00;102090.06;4929870;29;20043;-82
2022/01/18 09:16:21;;;;;;;119.80;57.45;;;;;;;6.13;100.00;102089.31;4927776;29;20126;-85
2022/01/18 09:18:56;;;;;;;122.03;57.50;;;;;;;6.29;100.00;102097.94;4947228;29;20043;-85
2022/01/18 09:21:22;;;;;;;117.03;58.38;;;;;;;6.44;100.00;102102.22;4950821;29;20106;-85
2022/01/18 09:23:48;;;;;;;120.72;57.17;;;;;;;6.47;100.00;102104.66;4942686;29;20052;-85
2022/01/18 09:26:14;;;;;;;115.63;60.22;;;;;;;6.64;100.00;102114.97;4956159;29;20035;-85
2022/01/18 09:28:41;;;;;;;122.35;60.63;;;;;;;6.88;100.00;102111.72;4973329;29;20046;-84
2022/01/18 09:31:06;;;;;;;126.35;61.58;;;;;;;7.01;100.00;102124.00;4963577;28;20048;-85
2022/01/18 09:33:32;;;;;;;115.80;59.83;;;;;;;7.06;100.00;102121.91;4975842;28;20062;-84
2022/01/18 09:36:10;;;;;;;127.63;63.83;;;;;;;6.96;100.00;102122.63;4947524;28;20027;-85
2022/01/18 09:38:39;;;;;;;123.85;61.55;;;;;;;7.07;100.00;102126.22;4974661;28;20186;-87
2022/01/18 09:41:10;;;;;;;117.53;61.33;;;;;;;7.22;100.00;102127.03;4974335;29;20039;-84
2022/01/18 09:43:51;;;;;;;135.40;61.67;;;;;;;7.17;100.00;102132.59;4975254;28;20050;-87
2022/01/18 09:46:16;;;;;;;126.03;62.70;;;;;;;7.26;100.00;102131.13;4970080;29;20023;-85
2022/01/18 09:48:42;;;;;;;120.35;61.30;;;;;;;7.40;100.00;102128.44;4975289;28;20054;-83
2022/01/18 09:51:09;;;;;;;123.50;64.22;;;;;;;7.27;100.00;102132.81;4972862;29;20190;-85
2022/01/18 09:53:34;;;;;;;122.22;64.32;;;;;;;7.33;100.00;102139.47;4946242;29;20075;-79
2022/01/18 09:56:00;;;;;;;125.07;63.50;;;;;;;7.30;100.00;102132.63;4946701;29;20132;-79
2022/01/18 09:58:25;;;;;;;126.68;64.38;;;;;;;7.57;100.00;102136.06;4937151;29;20032;-78
2022/01/18 10:00:52;;;;;;;123.10;65.57;;;;;;;7.45;100.00;102136.03;4936992;29;20094;-82
2022/01/18 10:03:25;;;;;;;128.05;67.72;;;;;;;7.38;100.00;102145.31;4936621;29;20066;-78
2022/01/18 10:05:51;;;;;;;127.50;67.88;;;;;;;7.61;100.00;102140.19;4950214;29;20436;-78
2022/01/18 10:08:18;;;;;;;142.77;69.38;;;;;;;7.52;100.00;102143.44;4952345;29;20039;-79
2022/01/18 10:10:48;;;;;;;129.25;69.63;;;;;;;7.57;100.00;102138.69;4945002;29;20201;-81
2022/01/18 10:13:16;;;;;;;129.48;67.53;;;;;;;7.69;100.00;102140.50;4936366;29;20099;-84
2022/01/18 10:16:01;;;;;;;135.65;70.65;;;;;;;7.91;100.00;102144.31;4938206;29;20528;-80
2022/01/18 10:18:49;;;;;;;140.02;73.38;;;;;;;7.79;100.00;102148.63;4943130;29;20035;-79
2022/01/18 10:21:24;;;;;;;142.77;73.97;;;;;;;7.78;100.00;102145.19;4952931;29;20043;-78
2022/01/18 10:23:49;;;;;;;139.32;72.00;;;;;;;7.79;100.00;102149.47;4951209;28;20094;-79
2022/01/18 10:26:25;;;;;;;142.05;71.70;;;;;;;7.74;100.00;102148.13;4936905;29;20031;-79
2022/01/18 10:29:03;;;;;;;146.05;76.43;;;;;;;7.61;100.00;102153.38;4939341;29;20062;-77
2022/01/18 10:31:41;;;;;;;130.57;70.53;;;;;;;7.82;100.00;102151.91;4954768;29;20133;-78
2022/01/18 10:34:20;;;;;;;115.20;59.58;;;;;;;7.84;100.00;102161.53;4940192;29;20048;-79
2022/01/18 10:36:58;;;;;;;84.05;44.90;;;;;;;7.84;100.00;102161.53;4944698;29;20036;-81
2022/01/18 10:39:27;;;;;;;69.85;35.45;;;;;;;7.72;93.10;102165.84;4951940;29;20224;-81
2022/01/18 10:41:53;;;;;;;57.58;30.02;;;;;;;7.46;90.67;102162.31;4957390;29;20496;-80
2022/01/18 10:44:20;;;;;;;64.50;32.92;;;;;;;7.35;89.16;102170.09;4957261;29;20122;-82
2022/01/18 10:46:48;;;;;;;63.72;30.98;;;;;;;7.35;88.47;102172.75;4957713;29;20047;-78
2022/01/18 10:49:39;;;;;;;75.15;30.20;;;;;;;7.19;87.92;102166.78;4939836;29;20075;-80
2022/01/18 10:52:10;;;;;;;68.82;30.17;;;;;;;7.07;89.45;102164.91;4940254;29;20067;-78
2022/01/18 10:54:44;;;;;;;63.35;31.30;;;;;;;7.24;92.01;102165.53;4957545;29;20047;-79
2022/01/18 10:57:12;;;;;;;80.38;38.97;;;;;;;7.23;96.06;102170.88;4956947;29;20039;-80
2022/01/18 10:59:39;;;;;;;101.85;48.33;;;;;;;7.22;100.00;102163.94;4923154;29;20484;-79
2022/01/18 11:02:10;;;;;;;107.82;54.40;;;;;;;7.22;100.00;102161.31;4938402;29;20114;-81
2022/01/18 11:04:36;;;;;;;114.35;54.47;;;;;;;7.07;100.00;102159.66;4938740;29;20048;-81
2022/01/18 11:07:03;;;;;;;125.93;57.83;;;;;;;7.11;100.00;102169.06;4938765;29;20059;-82
2022/01/18 11:09:32;;;;;;;153.35;68.07;;;;;;;7.28;100.00;102166.16;4942654;29;20160;-82
2022/01/18 11:11:58;;;;;;;154.48;70.32;;;;;;;7.32;100.00;102159.75;4936995;29;20047;-80
2022/01/18 11:14:25;;;;;;;164.52;75.45;;;;;;;7.00;100.00;102161.84;4920691;29;20033;-81
2022/01/18 11:16:56;;;;;;;166.80;72.75;;;;;;;7.02;100.00;102164.38;4938962;29;20040;-80
2022/01/18 11:21:52;;;;;;;172.50;73.63;;;;;;;7.13;100.00;102156.59;4938493;29;20046;-79
2022/01/18 11:24:18;;;;;;;171.43;72.88;;;;;;;6.90;100.00;102151.97;4944600;29;20044;-79
2022/01/18 11:26:45;;;;;;;179.43;75.57;;;;;;;6.91;100.00;102164.22;4946388;29;20055;-78
2022/01/18 11:29:16;;;;;;;174.10;72.32;;;;;;;7.01;100.00;102160.06;4944950;29;20096;-78
2022/01/18 11:31:45;;;;;;;184.18;76.13;;;;;;;6.95;100.00;102152.53;4945474;29;20060;-78
2022/01/18 11:34:18;;;;;;;178.82;74.40;;;;;;;6.82;100.00;102156.91;4941296;29;20071;-78
2022/01/18 11:36:50;;;;;;;192.75;78.30;;;;;;;6.92;100.00;102156.22;4942428;29;20031;-84
2022/01/18 11:39:18;;;;;;;179.75;72.78;;;;;;;7.04;100.00;102157.22;4941925;29;20490;-86
2022/01/18 11:41:43;;;;;;;177.50;71.65;;;;;;;6.95;100.00;102168.34;4945069;29;20036;-81
2022/01/18 11:44:16;;;;;;;178.88;72.72;;;;;;;6.97;100.00;102158.56;4927223;29;20114;-83
2022/01/18 11:46:52;;;;;;;184.70;72.68;;;;;;;6.95;100.00;102168.34;4937439;29;20481;-82
2022/01/18 11:49:24;;;;;;;177.70;69.93;;;;;;;6.88;100.00;102161.78;4938427;29;20067;-86
2022/01/18 11:52:03;;;;;;;182.13;71.40;;;;;;;7.02;100.00;102164.38;4942844;29;20439;-90
2022/01/18 11:57:15;;;;;;;192.90;75.00;;;;;;;6.49;100.00;102168.66;4938661;29;20055;-86
2022/01/18 11:59:41;;;;;;;187.70;71.68;;;;;;;6.53;100.00;102170.13;4929203;29;20401;-81
2022/01/18 12:02:07;;;;;;;186.10;70.72;;;;;;;6.44;100.00;102169.84;4953310;29;20086;-83
2022/01/18 12:04:48;;;;;;;177.93;68.32;;;;;;;6.54;100.00;102169.19;4948505;29;20115;-81
2022/01/18 12:07:53;;;;;;;186.23;69.78;;;;;;;6.50;100.00;102169.47;4946132;29;20409;-78
2022/01/18 12:10:38;;;;;;;186.23;70.40;;;;;;;6.66;100.00;102160.50;4854437;29;20033;-81
2022/01/18 12:13:12;;;;;;;225.73;82.63;;;;;;;6.65;100.00;102172.00;4851039;29;20054;-83
2022/01/18 12:15:41;;;;;;;188.00;72.97;;;;;;;6.66;100.00;102173.69;4848365;29;20050;-81
2022/01/18 12:18:12;;;;;;;187.82;71.88;;;;;;;6.65;100.00;102177.28;4852326;29;20070;-85
2022/01/18 12:20:56;;;;;;;188.52;72.53;;;;;;;6.60;100.00;102174.06;4854260;29;20033;-87
2022/01/18 12:23:24;;;;;;;194.75;70.85;;;;;;;6.71;100.00;102170.75;4838513;29;20050;-88
2022/01/18 12:29:21;;;;;;;199.77;74.78;;;;;;;6.64;100.00;102172.94;4949272;29;20118;-82
2022/01/18 12:34:25;;;;;;;195.05;73.68;;;;;;;6.76;100.00;102179.25;4945727;29;20489;-80
2022/01/18 12:37:23;;;;;;;180.40;69.90;;;;;;;6.98;100.00;102183.97;4944486;29;20481;-79
2022/01/18 12:39:51;;;;;;;178.68;69.38;;;;;;;6.88;100.00;102174.97;4945754;29;20110;-80
2022/01/18 12:44:59;;;;;;;171.70;67.13;;;;;;;6.69;100.00;102170.84;4943937;29;20079;-81